sensor_id;sensor_type;location;lat;lon;timestamp;P1;durP1;ratioP1;P2;durP2;ratioP2
4084;SDS011;2057;50.858;6.572;2023-02-08T00:01:37;22.80;;;13.27;;
4084;SDS011;2057;50.858;6.572;2023-02-08T00:04:05;24.42;;;12.73;;
4084;SDS011;2057;50.858;6.572;2023-02-08T00:06:32;23.13;;;12.80;;
4084;SDS011;2057;50.858;6.572;2023-02-08T00:08:58;28.23;;;11.93;;
4084;SDS011;2057;50.858;6.572;2023-02-08T00:11:25;21.55;;;11.57;;
4084;SDS011;2057;50.858;6.572;2023-02-08T00:13:50;19.93;;;11.40;;
4084;SDS011;2057;50.858;6.572;2023-02-08T00:16:15;24.10;;;13.57;;
4084;SDS011;2057;50.858;6.572;2023-02-08T00:18:42;22.60;;;11.80;;
4084;SDS011;2057;50.858;6.572;2023-02-08T00:21:08;22.80;;;11.70;;
4084;SDS011;2057;50.858;6.572;2023-02-08T00:23:38;21.27;;;12.63;;
4084;SDS011;2057;50.858;6.572;2023-02-08T00:26:04;23.77;;;12.00;;
4084;SDS011;2057;50.858;6.572;2023-02-08T00:28:30;20.73;;;13.07;;
4084;SDS011;2057;50.858;6.572;2023-02-08T00:30:55;19.50;;;10.67;;
4084;SDS011;2057;50.858;6.572;2023-02-08T00:33:20;23.37;;;12.33;;
4084;SDS011;2057;50.858;6.572;2023-02-08T00:35:46;27.10;;;13.97;;
4084;SDS011;2057;50.858;6.572;2023-02-08T00:38:11;19.13;;;10.97;;
4084;SDS011;2057;50.858;6.572;2023-02-08T00:40:36;22.40;;;13.60;;
4084;SDS011;2057;50.858;6.572;2023-02-08T00:43:02;23.17;;;11.77;;
4084;SDS011;2057;50.858;6.572;2023-02-08T00:45:27;24.50;;;12.10;;
4084;SDS011;2057;50.858;6.572;2023-02-08T00:47:53;22.37;;;12.70;;
4084;SDS011;2057;50.858;6.572;2023-02-08T00:50:18;18.57;;;10.63;;
4084;SDS011;2057;50.858;6.572;2023-02-08T00:52:43;18.93;;;10.93;;
4084;SDS011;2057;50.858;6.572;2023-02-08T00:55:09;28.57;;;12.77;;
4084;SDS011;2057;50.858;6.572;2023-02-08T00:57:34;22.00;;;12.73;;
4084;SDS011;2057;50.858;6.572;2023-02-08T01:00:00;22.07;;;11.80;;
4084;SDS011;2057;50.858;6.572;2023-02-08T01:02:26;19.73;;;11.73;;
4084;SDS011;2057;50.858;6.572;2023-02-08T01:04:52;24.40;;;11.57;;
4084;SDS011;2057;50.858;6.572;2023-02-08T01:07:17;26.33;;;13.57;;
4084;SDS011;2057;50.858;6.572;2023-02-08T01:09:42;23.10;;;11.30;;
4084;SDS011;2057;50.858;6.572;2023-02-08T01:12:10;22.60;;;12.07;;
4084;SDS011;2057;50.858;6.572;2023-02-08T01:14:36;26.10;;;11.70;;
4084;SDS011;2057;50.858;6.572;2023-02-08T01:17:03;20.83;;;12.00;;
4084;SDS011;2057;50.858;6.572;2023-02-08T01:19:28;21.63;;;12.20;;
4084;SDS011;2057;50.858;6.572;2023-02-08T01:21:53;21.67;;;11.70;;
4084;SDS011;2057;50.858;6.572;2023-02-08T01:24:19;27.23;;;11.80;;
4084;SDS011;2057;50.858;6.572;2023-02-08T01:26:44;20.27;;;11.37;;
4084;SDS011;2057;50.858;6.572;2023-02-08T01:29:10;21.27;;;11.23;;
4084;SDS011;2057;50.858;6.572;2023-02-08T01:31:38;15.98;;;11.15;;
4084;SDS011;2057;50.858;6.572;2023-02-08T01:34:05;21.92;;;10.85;;
4084;SDS011;2057;50.858;6.572;2023-02-08T01:36:31;23.30;;;12.07;;
4084;SDS011;2057;50.858;6.572;2023-02-08T01:39:00;21.33;;;12.73;;
4084;SDS011;2057;50.858;6.572;2023-02-08T01:41:35;18.50;;;11.20;;
4084;SDS011;2057;50.858;6.572;2023-02-08T01:44:04;22.08;;;11.27;;
4084;SDS011;2057;50.858;6.572;2023-02-08T01:46:40;22.83;;;11.70;;
4084;SDS011;2057;50.858;6.572;2023-02-08T01:51:41;23.40;;;11.57;;
4084;SDS011;2057;50.858;6.572;2023-02-08T01:54:11;20.98;;;11.30;;
4084;SDS011;2057;50.858;6.572;2023-02-08T01:56:40;19.73;;;11.05;;
4084;SDS011;2057;50.858;6.572;2023-02-08T01:59:12;22.65;;;12.55;;
4084;SDS011;2057;50.858;6.572;2023-02-08T02:01:41;22.55;;;11.85;;
4084;SDS011;2057;50.858;6.572;2023-02-08T02:04:09;20.63;;;10.80;;
4084;SDS011;2057;50.858;6.572;2023-02-08T02:06:36;23.80;;;11.70;;
4084;SDS011;2057;50.858;6.572;2023-02-08T02:09:09;19.65;;;11.45;;
4084;SDS011;2057;50.858;6.572;2023-02-08T02:11:41;21.55;;;11.40;;
4084;SDS011;2057;50.858;6.572;2023-02-08T02:14:07;25.92;;;11.20;;
4084;SDS011;2057;50.858;6.572;2023-02-08T02:16:33;20.85;;;11.25;;
4084;SDS011;2057;50.858;6.572;2023-02-08T02:18:59;24.43;;;11.10;;
4084;SDS011;2057;50.858;6.572;2023-02-08T02:32:25;22.75;;;11.75;;
4084;SDS011;2057;50.858;6.572;2023-02-08T02:35:02;16.85;;;9.45;;
4084;SDS011;2057;50.858;6.572;2023-02-08T02:37:37;20.20;;;10.82;;
4084;SDS011;2057;50.858;6.572;2023-02-08T02:43:22;22.73;;;11.30;;
4084;SDS011;2057;50.858;6.572;2023-02-08T02:49:01;17.90;;;11.40;;
4084;SDS011;2057;50.858;6.572;2023-02-08T02:54:10;34.15;;;12.48;;
4084;SDS011;2057;50.858;6.572;2023-02-08T02:56:41;21.42;;;11.45;;
4084;SDS011;2057;50.858;6.572;2023-02-08T02:59:10;20.30;;;11.30;;
4084;SDS011;2057;50.858;6.572;2023-02-08T03:01:38;20.60;;;11.38;;
4084;SDS011;2057;50.858;6.572;2023-02-08T03:08:05;27.20;;;11.70;;
4084;SDS011;2057;50.858;6.572;2023-02-08T03:10:18;21.80;;;11.70;;
4084;SDS011;2057;50.858;6.572;2023-02-08T03:16:23;24.98;;;11.60;;
4084;SDS011;2057;50.858;6.572;2023-02-08T03:19:01;20.52;;;12.05;;
4084;SDS011;2057;50.858;6.572;2023-02-08T03:27:30;19.55;;;10.65;;
4084;SDS011;2057;50.858;6.572;2023-02-08T03:30:11;32.47;;;13.45;;
4084;SDS011;2057;50.858;6.572;2023-02-08T03:35:18;26.10;;;10.43;;
4084;SDS011;2057;50.858;6.572;2023-02-08T03:37:49;21.42;;;11.93;;
4084;SDS011;2057;50.858;6.572;2023-02-08T03:40:35;26.83;;;11.55;;
4084;SDS011;2057;50.858;6.572;2023-02-08T03:43:07;19.23;;;11.88;;
4084;SDS011;2057;50.858;6.572;2023-02-08T03:45:39;24.92;;;10.73;;
4084;SDS011;2057;50.858;6.572;2023-02-08T03:48:16;29.00;;;11.80;;
4084;SDS011;2057;50.858;6.572;2023-02-08T03:50:46;19.55;;;12.38;;
4084;SDS011;2057;50.858;6.572;2023-02-08T03:53:18;20.05;;;10.85;;
4084;SDS011;2057;50.858;6.572;2023-02-08T03:55:46;17.13;;;11.32;;
4084;SDS011;2057;50.858;6.572;2023-02-08T04:00:51;22.60;;;12.40;;
4084;SDS011;2057;50.858;6.572;2023-02-08T04:03:23;30.15;;;13.30;;
4084;SDS011;2057;50.858;6.572;2023-02-08T04:05:53;25.92;;;12.75;;
4084;SDS011;2057;50.858;6.572;2023-02-08T04:08:19;25.33;;;13.52;;
4084;SDS011;2057;50.858;6.572;2023-02-08T04:10:45;41.05;;;12.38;;
4084;SDS011;2057;50.858;6.572;2023-02-08T04:13:12;23.27;;;11.70;;
4084;SDS011;2057;50.858;6.572;2023-02-08T04:15:37;22.30;;;12.87;;
4084;SDS011;2057;50.858;6.572;2023-02-08T04:18:02;29.73;;;13.20;;
4084;SDS011;2057;50.858;6.572;2023-02-08T04:20:28;27.50;;;13.17;;
4084;SDS011;2057;50.858;6.572;2023-02-08T04:22:53;21.13;;;11.23;;
4084;SDS011;2057;50.858;6.572;2023-02-08T04:25:19;19.40;;;12.47;;
4084;SDS011;2057;50.858;6.572;2023-02-08T04:27:45;20.40;;;12.05;;
4084;SDS011;2057;50.858;6.572;2023-02-08T04:30:10;24.20;;;12.93;;
4084;SDS011;2057;50.858;6.572;2023-02-08T04:32:38;19.48;;;11.10;;
4084;SDS011;2057;50.858;6.572;2023-02-08T04:35:04;24.07;;;11.83;;
4084;SDS011;2057;50.858;6.572;2023-02-08T04:37:29;29.80;;;11.67;;
4084;SDS011;2057;50.858;6.572;2023-02-08T04:39:55;17.20;;;10.90;;
4084;SDS011;2057;50.858;6.572;2023-02-08T04:42:20;18.87;;;11.70;;
4084;SDS011;2057;50.858;6.572;2023-02-08T04:44:46;21.43;;;11.97;;
4084;SDS011;2057;50.858;6.572;2023-02-08T04:47:11;20.40;;;10.83;;
4084;SDS011;2057;50.858;6.572;2023-02-08T04:49:36;18.47;;;10.73;;
4084;SDS011;2057;50.858;6.572;2023-02-08T04:52:02;16.30;;;9.80;;
4084;SDS011;2057;50.858;6.572;2023-02-08T04:54:28;16.40;;;10.02;;
4084;SDS011;2057;50.858;6.572;2023-02-08T04:56:53;22.27;;;11.80;;
4084;SDS011;2057;50.858;6.572;2023-02-08T04:59:19;21.80;;;11.40;;
4084;SDS011;2057;50.858;6.572;2023-02-08T05:01:44;25.53;;;11.70;;
4084;SDS011;2057;50.858;6.572;2023-02-08T05:04:10;20.17;;;11.50;;
4084;SDS011;2057;50.858;6.572;2023-02-08T05:06:35;23.20;;;12.27;;
4084;SDS011;2057;50.858;6.572;2023-02-08T05:09:01;23.47;;;12.10;;
4084;SDS011;2057;50.858;6.572;2023-02-08T05:11:27;17.70;;;10.53;;
4084;SDS011;2057;50.858;6.572;2023-02-08T05:13:52;20.20;;;11.47;;
4084;SDS011;2057;50.858;6.572;2023-02-08T05:16:18;24.73;;;11.83;;
4084;SDS011;2057;50.858;6.572;2023-02-08T05:18:43;25.27;;;11.70;;
4084;SDS011;2057;50.858;6.572;2023-02-08T05:21:09;25.07;;;12.90;;
4084;SDS011;2057;50.858;6.572;2023-02-08T05:23:35;24.73;;;11.53;;
4084;SDS011;2057;50.858;6.572;2023-02-08T05:26:04;18.45;;;10.43;;
4084;SDS011;2057;50.858;6.572;2023-02-08T05:28:34;19.73;;;11.85;;
4084;SDS011;2057;50.858;6.572;2023-02-08T05:31:06;22.57;;;12.20;;
4084;SDS011;2057;50.858;6.572;2023-02-08T05:33:33;20.85;;;11.32;;
4084;SDS011;2057;50.858;6.572;2023-02-08T05:35:59;30.97;;;15.20;;
4084;SDS011;2057;50.858;6.572;2023-02-08T05:38:24;27.10;;;12.53;;
4084;SDS011;2057;50.858;6.572;2023-02-08T05:40:49;22.37;;;12.10;;
4084;SDS011;2057;50.858;6.572;2023-02-08T05:43:17;23.02;;;12.57;;
4084;SDS011;2057;50.858;6.572;2023-02-08T05:45:42;18.57;;;11.33;;
4084;SDS011;2057;50.858;6.572;2023-02-08T05:48:08;25.43;;;13.20;;
4084;SDS011;2057;50.858;6.572;2023-02-08T05:50:35;23.80;;;13.70;;
4084;SDS011;2057;50.858;6.572;2023-02-08T05:53:01;26.55;;;13.55;;
4084;SDS011;2057;50.858;6.572;2023-02-08T05:55:26;22.50;;;12.10;;
4084;SDS011;2057;50.858;6.572;2023-02-08T05:57:52;20.17;;;11.43;;
4084;SDS011;2057;50.858;6.572;2023-02-08T06:00:18;25.83;;;12.70;;
4084;SDS011;2057;50.858;6.572;2023-02-08T06:02:44;19.35;;;10.40;;
4084;SDS011;2057;50.858;6.572;2023-02-08T06:05:09;21.47;;;11.50;;
4084;SDS011;2057;50.858;6.572;2023-02-08T06:07:35;25.50;;;13.53;;
4084;SDS011;2057;50.858;6.572;2023-02-08T06:10:00;34.03;;;15.80;;
4084;SDS011;2057;50.858;6.572;2023-02-08T06:12:26;20.90;;;14.27;;
4084;SDS011;2057;50.858;6.572;2023-02-08T06:14:51;25.23;;;13.90;;
4084;SDS011;2057;50.858;6.572;2023-02-08T06:17:17;34.13;;;16.20;;
4084;SDS011;2057;50.858;6.572;2023-02-08T06:19:42;31.17;;;16.37;;
4084;SDS011;2057;50.858;6.572;2023-02-08T06:22:07;26.27;;;11.10;;
4084;SDS011;2057;50.858;6.572;2023-02-08T06:24:33;20.50;;;11.70;;
4084;SDS011;2057;50.858;6.572;2023-02-08T06:26:58;20.47;;;11.70;;
4084;SDS011;2057;50.858;6.572;2023-02-08T06:29:23;18.00;;;11.00;;
4084;SDS011;2057;50.858;6.572;2023-02-08T06:31:49;24.60;;;11.97;;
4084;SDS011;2057;50.858;6.572;2023-02-08T06:34:14;25.23;;;11.80;;
4084;SDS011;2057;50.858;6.572;2023-02-08T06:36:39;23.43;;;11.43;;
4084;SDS011;2057;50.858;6.572;2023-02-08T06:39:05;19.93;;;12.07;;
4084;SDS011;2057;50.858;6.572;2023-02-08T06:41:32;18.30;;;11.20;;
4084;SDS011;2057;50.858;6.572;2023-02-08T06:43:58;20.25;;;11.45;;
4084;SDS011;2057;50.858;6.572;2023-02-08T06:46:25;24.77;;;11.73;;
4084;SDS011;2057;50.858;6.572;2023-02-08T06:48:50;20.67;;;10.40;;
4084;SDS011;2057;50.858;6.572;2023-02-08T06:51:15;24.87;;;11.87;;
4084;SDS011;2057;50.858;6.572;2023-02-08T06:53:41;23.73;;;13.00;;
4084;SDS011;2057;50.858;6.572;2023-02-08T06:56:06;22.20;;;10.70;;
4084;SDS011;2057;50.858;6.572;2023-02-08T06:58:31;18.60;;;10.27;;
4084;SDS011;2057;50.858;6.572;2023-02-08T07:00:57;20.50;;;11.27;;
4084;SDS011;2057;50.858;6.572;2023-02-08T07:03:22;19.57;;;11.13;;
4084;SDS011;2057;50.858;6.572;2023-02-08T07:05:48;28.33;;;11.50;;
4084;SDS011;2057;50.858;6.572;2023-02-08T07:08:13;23.00;;;10.90;;
4084;SDS011;2057;50.858;6.572;2023-02-08T07:10:39;22.17;;;11.10;;
4084;SDS011;2057;50.858;6.572;2023-02-08T07:13:04;20.20;;;10.73;;
4084;SDS011;2057;50.858;6.572;2023-02-08T07:15:30;18.35;;;10.93;;
4084;SDS011;2057;50.858;6.572;2023-02-08T07:17:56;30.27;;;11.13;;
4084;SDS011;2057;50.858;6.572;2023-02-08T07:20:22;18.90;;;9.40;;
4084;SDS011;2057;50.858;6.572;2023-02-08T07:22:49;23.40;;;11.38;;
4084;SDS011;2057;50.858;6.572;2023-02-08T07:25:15;21.97;;;11.83;;
4084;SDS011;2057;50.858;6.572;2023-02-08T07:27:40;19.10;;;10.13;;
4084;SDS011;2057;50.858;6.572;2023-02-08T07:30:06;18.17;;;9.50;;
4084;SDS011;2057;50.858;6.572;2023-02-08T07:32:32;27.83;;;13.00;;
4084;SDS011;2057;50.858;6.572;2023-02-08T07:34:58;18.37;;;9.80;;
4084;SDS011;2057;50.858;6.572;2023-02-08T07:37:24;19.10;;;11.43;;
4084;SDS011;2057;50.858;6.572;2023-02-08T07:39:49;23.80;;;11.77;;
4084;SDS011;2057;50.858;6.572;2023-02-08T07:42:15;22.87;;;9.90;;
4084;SDS011;2057;50.858;6.572;2023-02-08T07:44:40;19.40;;;9.90;;
4084;SDS011;2057;50.858;6.572;2023-02-08T07:47:05;19.33;;;10.57;;
4084;SDS011;2057;50.858;6.572;2023-02-08T07:49:31;21.43;;;11.13;;
4084;SDS011;2057;50.858;6.572;2023-02-08T07:51:58;20.13;;;11.18;;
4084;SDS011;2057;50.858;6.572;2023-02-08T07:54:24;20.15;;;11.63;;
4084;SDS011;2057;50.858;6.572;2023-02-08T07:56:50;17.73;;;11.00;;
4084;SDS011;2057;50.858;6.572;2023-02-08T07:59:15;37.30;;;11.07;;
4084;SDS011;2057;50.858;6.572;2023-02-08T08:01:41;22.70;;;11.87;;
4084;SDS011;2057;50.858;6.572;2023-02-08T08:04:06;23.77;;;10.67;;
4084;SDS011;2057;50.858;6.572;2023-02-08T08:06:31;26.57;;;12.60;;
4084;SDS011;2057;50.858;6.572;2023-02-08T08:08:57;23.30;;;11.40;;
4084;SDS011;2057;50.858;6.572;2023-02-08T08:11:22;21.60;;;10.73;;
4084;SDS011;2057;50.858;6.572;2023-02-08T08:13:48;16.80;;;10.00;;
4084;SDS011;2057;50.858;6.572;2023-02-08T08:16:14;16.85;;;10.50;;
4084;SDS011;2057;50.858;6.572;2023-02-08T08:18:40;25.90;;;11.57;;
4084;SDS011;2057;50.858;6.572;2023-02-08T08:21:05;23.67;;;11.20;;
4084;SDS011;2057;50.858;6.572;2023-02-08T08:23:31;20.17;;;10.60;;
4084;SDS011;2057;50.858;6.572;2023-02-08T08:26:04;21.90;;;10.45;;
4084;SDS011;2057;50.858;6.572;2023-02-08T08:28:38;18.05;;;9.75;;
4084;SDS011;2057;50.858;6.572;2023-02-08T08:31:14;18.98;;;11.25;;
4084;SDS011;2057;50.858;6.572;2023-02-08T08:33:44;19.35;;;9.85;;
4084;SDS011;2057;50.858;6.572;2023-02-08T08:36:09;19.63;;;11.23;;
4084;SDS011;2057;50.858;6.572;2023-02-08T08:38:35;23.37;;;10.87;;
4084;SDS011;2057;50.858;6.572;2023-02-08T08:41:11;21.38;;;11.02;;
4084;SDS011;2057;50.858;6.572;2023-02-08T08:43:46;19.08;;;9.65;;
4084;SDS011;2057;50.858;6.572;2023-02-08T08:46:11;30.17;;;12.20;;
4084;SDS011;2057;50.858;6.572;2023-02-08T08:48:37;22.20;;;11.80;;
4084;SDS011;2057;50.858;6.572;2023-02-08T08:51:03;20.27;;;10.80;;
4084;SDS011;2057;50.858;6.572;2023-02-08T08:53:29;25.17;;;11.97;;
4084;SDS011;2057;50.858;6.572;2023-02-08T08:55:56;23.67;;;11.55;;
4084;SDS011;2057;50.858;6.572;2023-02-08T08:58:22;25.37;;;11.50;;
4084;SDS011;2057;50.858;6.572;2023-02-08T09:00:50;21.80;;;11.17;;
4084;SDS011;2057;50.858;6.572;2023-02-08T09:03:15;25.02;;;10.85;;
4084;SDS011;2057;50.858;6.572;2023-02-08T09:05:40;20.43;;;10.80;;
4084;SDS011;2057;50.858;6.572;2023-02-08T09:08:06;21.03;;;11.23;;
4084;SDS011;2057;50.858;6.572;2023-02-08T09:10:32;32.50;;;11.30;;
4084;SDS011;2057;50.858;6.572;2023-02-08T09:12:57;22.10;;;10.83;;
4084;SDS011;2057;50.858;6.572;2023-02-08T09:15:23;25.70;;;11.77;;
4084;SDS011;2057;50.858;6.572;2023-02-08T09:17:48;19.63;;;11.10;;
4084;SDS011;2057;50.858;6.572;2023-02-08T09:20:14;20.60;;;10.90;;
4084;SDS011;2057;50.858;6.572;2023-02-08T09:22:39;17.27;;;9.00;;
4084;SDS011;2057;50.858;6.572;2023-02-08T09:25:07;15.40;;;9.52;;
4084;SDS011;2057;50.858;6.572;2023-02-08T09:27:33;20.80;;;9.40;;
4084;SDS011;2057;50.858;6.572;2023-02-08T09:30:01;15.10;;;8.00;;
4084;SDS011;2057;50.858;6.572;2023-02-08T09:32:29;20.07;;;9.37;;
4084;SDS011;2057;50.858;6.572;2023-02-08T09:34:57;20.15;;;10.15;;
4084;SDS011;2057;50.858;6.572;2023-02-08T09:37:23;20.30;;;10.07;;
4084;SDS011;2057;50.858;6.572;2023-02-08T09:39:48;18.57;;;10.00;;
4084;SDS011;2057;50.858;6.572;2023-02-08T09:50:40;25.05;;;8.98;;
4084;SDS011;2057;50.858;6.572;2023-02-08T09:53:22;18.33;;;8.45;;
4084;SDS011;2057;50.858;6.572;2023-02-08T09:55:56;20.42;;;8.05;;
4084;SDS011;2057;50.858;6.572;2023-02-08T09:58:25;22.65;;;8.77;;
4084;SDS011;2057;50.858;6.572;2023-02-08T10:01:27;15.05;;;9.05;;
4084;SDS011;2057;50.858;6.572;2023-02-08T10:04:36;16.35;;;9.10;;
4084;SDS011;2057;50.858;6.572;2023-02-08T10:06:51;12.50;;;7.13;;
4084;SDS011;2057;50.858;6.572;2023-02-08T10:09:17;19.47;;;8.40;;
4084;SDS011;2057;50.858;6.572;2023-02-08T10:22:17;14.93;;;9.37;;
4084;SDS011;2057;50.858;6.572;2023-02-08T10:36:43;17.67;;;8.80;;
4084;SDS011;2057;50.858;6.572;2023-02-08T10:39:13;11.97;;;7.63;;
4084;SDS011;2057;50.858;6.572;2023-02-08T10:41:41;14.25;;;6.35;;
4084;SDS011;2057;50.858;6.572;2023-02-08T10:49:32;15.45;;;7.53;;
4084;SDS011;2057;50.858;6.572;2023-02-08T10:52:04;17.92;;;8.35;;
4084;SDS011;2057;50.858;6.572;2023-02-08T10:54:30;14.73;;;7.83;;
4084;SDS011;2057;50.858;6.572;2023-02-08T10:56:57;12.80;;;7.87;;
4084;SDS011;2057;50.858;6.572;2023-02-08T10:59:27;18.52;;;7.18;;
4084;SDS011;2057;50.858;6.572;2023-02-08T11:01:57;14.35;;;7.90;;
4084;SDS011;2057;50.858;6.572;2023-02-08T11:04:23;20.23;;;9.73;;
4084;SDS011;2057;50.858;6.572;2023-02-08T11:06:48;12.03;;;6.70;;
4084;SDS011;2057;50.858;6.572;2023-02-08T11:11:49;12.25;;;7.60;;
4084;SDS011;2057;50.858;6.572;2023-02-08T11:14:17;11.68;;;7.38;;
4084;SDS011;2057;50.858;6.572;2023-02-08T11:16:50;21.63;;;8.98;;
4084;SDS011;2057;50.858;6.572;2023-02-08T11:19:22;18.15;;;8.20;;
4084;SDS011;2057;50.858;6.572;2023-02-08T11:21:50;16.42;;;7.78;;
4084;SDS011;2057;50.858;6.572;2023-02-08T11:27:35;11.38;;;7.47;;
4084;SDS011;2057;50.858;6.572;2023-02-08T11:32:44;17.52;;;9.40;;
4084;SDS011;2057;50.858;6.572;2023-02-08T11:35:17;18.88;;;10.55;;
4084;SDS011;2057;50.858;6.572;2023-02-08T11:37:45;13.73;;;7.90;;
4084;SDS011;2057;50.858;6.572;2023-02-08T11:40:28;13.85;;;8.13;;
4084;SDS011;2057;50.858;6.572;2023-02-08T11:42:58;21.00;;;10.23;;
4084;SDS011;2057;50.858;6.572;2023-02-08T11:45:26;14.75;;;7.85;;
4084;SDS011;2057;50.858;6.572;2023-02-08T11:47:55;11.95;;;7.15;;
4084;SDS011;2057;50.858;6.572;2023-02-08T11:50:25;11.85;;;7.38;;
4084;SDS011;2057;50.858;6.572;2023-02-08T11:52:59;13.35;;;7.78;;
4084;SDS011;2057;50.858;6.572;2023-02-08T11:55:29;11.43;;;7.22;;
4084;SDS011;2057;50.858;6.572;2023-02-08T11:58:16;13.65;;;7.35;;
4084;SDS011;2057;50.858;6.572;2023-02-08T12:00:56;13.98;;;7.40;;
4084;SDS011;2057;50.858;6.572;2023-02-08T12:03:27;16.30;;;7.97;;
4084;SDS011;2057;50.858;6.572;2023-02-08T12:22:19;9.15;;;5.93;;
4084;SDS011;2057;50.858;6.572;2023-02-08T12:24:49;10.18;;;5.18;;
4084;SDS011;2057;50.858;6.572;2023-02-08T12:33:44;11.70;;;6.35;;
4084;SDS011;2057;50.858;6.572;2023-02-08T12:44:39;7.82;;;4.72;;
4084;SDS011;2057;50.858;6.572;2023-02-08T12:50:06;7.53;;;4.63;;
4084;SDS011;2057;50.858;6.572;2023-02-08T12:52:45;4.63;;;3.05;;
4084;SDS011;2057;50.858;6.572;2023-02-08T12:55:20;10.32;;;3.35;;
4084;SDS011;2057;50.858;6.572;2023-02-08T12:57:51;5.38;;;3.08;;
4084;SDS011;2057;50.858;6.572;2023-02-08T13:00:22;4.50;;;3.15;;
4084;SDS011;2057;50.858;6.572;2023-02-08T13:03:04;6.38;;;3.55;;
4084;SDS011;2057;50.858;6.572;2023-02-08T13:05:38;3.90;;;2.97;;
4084;SDS011;2057;50.858;6.572;2023-02-08T13:08:42;4.00;;;3.05;;
4084;SDS011;2057;50.858;6.572;2023-02-08T13:11:06;8.73;;;3.10;;
4084;SDS011;2057;50.858;6.572;2023-02-08T13:14:02;11.90;;;3.90;;
4084;SDS011;2057;50.858;6.572;2023-02-08T13:16:37;9.48;;;4.65;;
4084;SDS011;2057;50.858;6.572;2023-02-08T13:19:22;6.57;;;3.25;;
4084;SDS011;2057;50.858;6.572;2023-02-08T13:21:53;12.82;;;4.32;;
4084;SDS011;2057;50.858;6.572;2023-02-08T13:27:03;9.85;;;3.10;;
4084;SDS011;2057;50.858;6.572;2023-02-08T13:29:33;10.75;;;4.30;;
4084;SDS011;2057;50.858;6.572;2023-02-08T13:32:01;7.70;;;4.28;;
4084;SDS011;2057;50.858;6.572;2023-02-08T13:34:37;17.67;;;2.78;;
4084;SDS011;2057;50.858;6.572;2023-02-08T13:37:18;4.93;;;3.20;;
4084;SDS011;2057;50.858;6.572;2023-02-08T13:39:46;8.32;;;3.00;;
4084;SDS011;2057;50.858;6.572;2023-02-08T13:44:59;5.00;;;3.25;;
4084;SDS011;2057;50.858;6.572;2023-02-08T13:47:27;5.40;;;3.13;;
4084;SDS011;2057;50.858;6.572;2023-02-08T13:57:56;7.80;;;3.25;;
4084;SDS011;2057;50.858;6.572;2023-02-08T14:00:27;12.35;;;3.90;;
4084;SDS011;2057;50.858;6.572;2023-02-08T14:10:44;6.17;;;3.70;;
4084;SDS011;2057;50.858;6.572;2023-02-08T14:13:30;6.60;;;3.47;;
4084;SDS011;2057;50.858;6.572;2023-02-08T14:18:50;4.10;;;2.95;;
4084;SDS011;2057;50.858;6.572;2023-02-08T14:21:31;13.13;;;4.18;;
4084;SDS011;2057;50.858;6.572;2023-02-08T14:24:04;5.78;;;2.72;;
4084;SDS011;2057;50.858;6.572;2023-02-08T14:26:32;4.28;;;2.55;;
4084;SDS011;2057;50.858;6.572;2023-02-08T14:29:00;4.57;;;2.28;;
4084;SDS011;2057;50.858;6.572;2023-02-08T14:31:35;17.80;;;3.53;;
4084;SDS011;2057;50.858;6.572;2023-02-08T14:34:05;6.60;;;3.00;;
4084;SDS011;2057;50.858;6.572;2023-02-08T14:36:41;5.10;;;2.60;;
4084;SDS011;2057;50.858;6.572;2023-02-08T14:39:26;5.00;;;2.60;;
4084;SDS011;2057;50.858;6.572;2023-02-08T14:41:57;8.93;;;3.03;;
4084;SDS011;2057;50.858;6.572;2023-02-08T14:47:01;6.50;;;3.20;;
4084;SDS011;2057;50.858;6.572;2023-02-08T14:49:28;4.20;;;2.50;;
4084;SDS011;2057;50.858;6.572;2023-02-08T14:52:09;4.93;;;3.10;;
4084;SDS011;2057;50.858;6.572;2023-02-08T14:57:06;5.63;;;3.47;;
4084;SDS011;2057;50.858;6.572;2023-02-08T14:59:47;5.95;;;3.00;;
4084;SDS011;2057;50.858;6.572;2023-02-08T15:02:14;8.18;;;3.22;;
4084;SDS011;2057;50.858;6.572;2023-02-08T15:04:45;7.90;;;3.63;;
4084;SDS011;2057;50.858;6.572;2023-02-08T15:10:04;8.60;;;5.07;;
4084;SDS011;2057;50.858;6.572;2023-02-08T15:12:39;7.03;;;4.10;;
4084;SDS011;2057;50.858;6.572;2023-02-08T15:15:41;6.15;;;3.35;;
4084;SDS011;2057;50.858;6.572;2023-02-08T15:18:03;6.20;;;4.35;;
4084;SDS011;2057;50.858;6.572;2023-02-08T15:20:34;7.30;;;3.97;;
4084;SDS011;2057;50.858;6.572;2023-02-08T15:23:02;6.18;;;4.55;;
4084;SDS011;2057;50.858;6.572;2023-02-08T15:25:42;7.35;;;4.70;;
4084;SDS011;2057;50.858;6.572;2023-02-08T15:28:18;9.17;;;4.00;;
4084;SDS011;2057;50.858;6.572;2023-02-08T15:30:51;10.60;;;4.28;;
4084;SDS011;2057;50.858;6.572;2023-02-08T15:33:39;5.97;;;3.80;;
4084;SDS011;2057;50.858;6.572;2023-02-08T15:38:53;11.70;;;3.80;;
4084;SDS011;2057;50.858;6.572;2023-02-08T15:41:24;6.30;;;4.13;;
4084;SDS011;2057;50.858;6.572;2023-02-08T15:43:50;9.93;;;4.88;;
4084;SDS011;2057;50.858;6.572;2023-02-08T15:46:25;7.25;;;4.32;;
4084;SDS011;2057;50.858;6.572;2023-02-08T15:48:52;7.15;;;3.85;;
4084;SDS011;2057;50.858;6.572;2023-02-08T15:51:18;6.90;;;4.85;;
4084;SDS011;2057;50.858;6.572;2023-02-08T15:53:49;11.05;;;4.53;;
4084;SDS011;2057;50.858;6.572;2023-02-08T15:56:18;5.55;;;3.60;;
4084;SDS011;2057;50.858;6.572;2023-02-08T15:58:48;8.40;;;5.00;;
4084;SDS011;2057;50.858;6.572;2023-02-08T16:01:18;8.85;;;4.28;;
4084;SDS011;2057;50.858;6.572;2023-02-08T16:03:45;5.13;;;3.63;;
4084;SDS011;2057;50.858;6.572;2023-02-08T16:06:18;7.80;;;3.58;;
4084;SDS011;2057;50.858;6.572;2023-02-08T16:08:48;12.95;;;4.50;;
4084;SDS011;2057;50.858;6.572;2023-02-08T16:11:19;12.20;;;4.90;;
4084;SDS011;2057;50.858;6.572;2023-02-08T16:13:48;17.52;;;6.03;;
4084;SDS011;2057;50.858;6.572;2023-02-08T16:18:59;7.45;;;4.28;;
4084;SDS011;2057;50.858;6.572;2023-02-08T16:23:55;8.98;;;4.28;;
4084;SDS011;2057;50.858;6.572;2023-02-08T16:26:24;15.70;;;4.68;;
4084;SDS011;2057;50.858;6.572;2023-02-08T16:29:02;10.07;;;4.05;;
4084;SDS011;2057;50.858;6.572;2023-02-08T16:31:30;5.60;;;3.97;;
4084;SDS011;2057;50.858;6.572;2023-02-08T16:34:03;14.38;;;5.13;;
4084;SDS011;2057;50.858;6.572;2023-02-08T16:36:33;7.30;;;4.90;;
4084;SDS011;2057;50.858;6.572;2023-02-08T16:39:21;8.10;;;5.30;;
4084;SDS011;2057;50.858;6.572;2023-02-08T16:44:26;9.35;;;4.88;;
4084;SDS011;2057;50.858;6.572;2023-02-08T16:46:51;13.75;;;5.63;;
4084;SDS011;2057;50.858;6.572;2023-02-08T16:49:17;8.10;;;4.50;;
4084;SDS011;2057;50.858;6.572;2023-02-08T16:51:43;7.03;;;4.10;;
4084;SDS011;2057;50.858;6.572;2023-02-08T16:54:12;10.68;;;5.07;;
4084;SDS011;2057;50.858;6.572;2023-02-08T16:56:40;16.13;;;5.88;;
4084;SDS011;2057;50.858;6.572;2023-02-08T16:59:07;9.53;;;5.70;;
4084;SDS011;2057;50.858;6.572;2023-02-08T17:01:34;29.35;;;8.95;;
4084;SDS011;2057;50.858;6.572;2023-02-08T17:04:02;22.23;;;9.57;;
4084;SDS011;2057;50.858;6.572;2023-02-08T17:06:35;23.90;;;8.10;;
4084;SDS011;2057;50.858;6.572;2023-02-08T17:09:04;33.35;;;12.23;;
4084;SDS011;2057;50.858;6.572;2023-02-08T17:11:32;28.23;;;10.60;;
4084;SDS011;2057;50.858;6.572;2023-02-08T17:14:00;30.10;;;11.68;;
4084;SDS011;2057;50.858;6.572;2023-02-08T17:16:27;30.97;;;10.67;;
4084;SDS011;2057;50.858;6.572;2023-02-08T17:18:54;20.52;;;9.38;;
4084;SDS011;2057;50.858;6.572;2023-02-08T17:21:20;18.08;;;8.85;;
4084;SDS011;2057;50.858;6.572;2023-02-08T17:23:46;26.30;;;8.90;;
4084;SDS011;2057;50.858;6.572;2023-02-08T17:28:52;18.45;;;9.80;;
4084;SDS011;2057;50.858;6.572;2023-02-08T17:31:21;21.45;;;12.10;;
4084;SDS011;2057;50.858;6.572;2023-02-08T17:33:47;10.80;;;7.47;;
4084;SDS011;2057;50.858;6.572;2023-02-08T17:36:14;7.55;;;5.70;;
4084;SDS011;2057;50.858;6.572;2023-02-08T17:38:41;12.70;;;7.55;;
4084;SDS011;2057;50.858;6.572;2023-02-08T17:41:14;14.80;;;8.63;;
4084;SDS011;2057;50.858;6.572;2023-02-08T17:43:42;18.60;;;6.50;;
4084;SDS011;2057;50.858;6.572;2023-02-08T17:46:11;16.17;;;8.70;;
4084;SDS011;2057;50.858;6.572;2023-02-08T17:48:41;12.73;;;6.55;;
4084;SDS011;2057;50.858;6.572;2023-02-08T17:51:08;15.53;;;7.10;;